createdAt,value
2023-02-24T00:02:48.842Z,90.81
2023-02-24T00:05:30.029Z,91.07
2023-02-24T00:08:18.565Z,90.87
2023-02-24T00:11:04.760Z,90.93
2023-02-24T00:13:51.555Z,90.71
2023-02-24T00:16:47.341Z,90.45
2023-02-24T00:19:38.307Z,89.39
2023-02-24T00:22:30.289Z,90.13
2023-02-24T00:25:12.376Z,90.77
2023-02-24T00:27:52.873Z,90.87
2023-02-24T00:30:44.251Z,91.11
2023-02-24T00:33:23.689Z,90.94
2023-02-24T00:36:07.428Z,91.22
2023-02-24T00:39:12.399Z,91.39
2023-02-24T00:42:20.449Z,91.71
2023-02-24T00:45:16.891Z,92.28
2023-02-24T00:47:57.731Z,93.46
2023-02-24T00:50:44.293Z,95.82
2023-02-24T00:53:38.623Z,96.34
2023-02-24T00:56:21.903Z,98.66
2023-02-24T00:59:01.554Z,99.65
2023-02-24T01:01:49.738Z,100.00
2023-02-24T01:04:21.941Z,100.00
2023-02-24T01:07:01.866Z,100.00
2023-02-24T01:09:47.859Z,100.00
2023-02-24T01:12:49.823Z,100.00
2023-02-24T01:15:34.089Z,100.00
2023-02-24T01:18:23.964Z,100.00
2023-02-24T01:21:13.812Z,100.00
2023-02-24T01:23:55.818Z,100.00
2023-02-24T01:26:35.578Z,100.00
2023-02-24T01:29:35.823Z,100.00
2023-02-24T01:32:42.952Z,100.00
2023-02-24T01:35:25.710Z,100.00
2023-02-24T01:38:12.818Z,100.00
2023-02-24T01:41:13.205Z,100.00
2023-02-24T01:44:36.809Z,100.00
2023-02-24T01:47:35.488Z,100.00
2023-02-24T01:50:15.664Z,100.00
2023-02-24T01:53:04.233Z,100.00
2023-02-24T01:55:50.843Z,100.00
2023-02-24T01:58:38.558Z,100.00
2023-02-24T02:01:23.583Z,100.00
2023-02-24T02:04:16.706Z,100.00
2023-02-24T02:06:58.429Z,100.00
2023-02-24T02:09:50.002Z,100.00
2023-02-24T02:12:34.022Z,100.00
2023-02-24T02:15:23.339Z,100.00
2023-02-24T02:19:03.242Z,98.82
2023-02-24T02:22:23.859Z,98.76
2023-02-24T02:25:00.389Z,99.05
2023-02-24T02:28:13.743Z,99.37
2023-02-24T02:31:36.315Z,98.63
2023-02-24T02:34:40.784Z,98.71
2023-02-24T02:37:35.653Z,98.35
2023-02-24T02:40:33.194Z,98.14
2023-02-24T02:43:43.112Z,97.74
2023-02-24T02:46:42.844Z,97.82
2023-02-24T02:49:53.585Z,97.98
2023-02-24T02:53:04.787Z,98.51
2023-02-24T02:56:07.796Z,98.48
2023-02-24T02:58:56.269Z,98.58
2023-02-24T03:01:41.657Z,98.44
2023-02-24T03:04:26.698Z,98.67
2023-02-24T03:07:12.763Z,98.83
2023-02-24T03:10:04.676Z,98.57
2023-02-24T03:12:47.407Z,98.13
2023-02-24T03:15:28.621Z,98.58
2023-02-24T03:18:14.857Z,98.88
2023-02-24T03:21:15.395Z,98.95
2023-02-24T03:24:10.832Z,99.30
2023-02-24T03:27:06.404Z,99.58
2023-02-24T03:29:58.569Z,99.21
2023-02-24T03:32:51.486Z,99.15
2023-02-24T03:35:57.535Z,99.63
2023-02-24T03:38:54.387Z,98.61
2023-02-24T03:41:38.218Z,98.88
2023-02-24T03:44:22.005Z,98.71
2023-02-24T03:46:59.790Z,99.20
2023-02-24T03:49:44.887Z,99.11
2023-02-24T03:52:40.266Z,99.26
2023-02-24T03:55:34.502Z,99.13
2023-02-24T03:58:38.659Z,99.69
2023-02-24T04:01:54.032Z,99.15
2023-02-24T04:04:31.861Z,99.14
2023-02-24T04:07:54.979Z,99.51
2023-02-24T04:10:58.793Z,99.05
2023-02-24T04:13:54.506Z,98.88
2023-02-24T04:16:57.079Z,99.25
2023-02-24T04:19:40.939Z,99.80
2023-02-24T04:22:25.665Z,100.00
2023-02-24T04:25:16.418Z,100.00
2023-02-24T04:27:54.945Z,100.00
2023-02-24T04:30:41.389Z,100.00
2023-02-24T04:33:30.897Z,99.95
2023-02-24T04:36:26.711Z,99.83
2023-02-24T04:39:07.890Z,100.00
2023-02-24T04:42:01.767Z,99.74
2023-02-24T04:44:58.058Z,100.00
2023-02-24T04:47:42.019Z,100.00
2023-02-24T04:50:23.098Z,100.00
2023-02-24T04:53:09.446Z,100.00
2023-02-24T04:56:01.792Z,100.00
2023-02-24T04:58:40.137Z,100.00
2023-02-24T05:01:25.952Z,100.00
2023-02-24T05:04:09.957Z,100.00
2023-02-24T05:07:05.353Z,100.00
2023-02-24T05:09:48.854Z,100.00
2023-02-24T05:12:39.260Z,100.00
2023-02-24T05:15:17.951Z,100.00
2023-02-24T05:18:22.007Z,100.00
2023-02-24T05:21:35.850Z,100.00
2023-02-24T05:24:19.162Z,100.00
2023-02-24T05:27:07.084Z,100.00
2023-02-24T05:29:47.438Z,100.00
2023-02-24T05:32:20.044Z,100.00
2023-02-24T05:35:24.796Z,100.00
2023-02-24T05:38:14.337Z,100.00
2023-02-24T05:41:04.981Z,100.00
2023-02-24T05:43:54.985Z,100.00
2023-02-24T05:46:42.777Z,100.00
2023-02-24T05:49:31.656Z,100.00
2023-02-24T05:52:24.605Z,100.00
2023-02-24T05:55:14.141Z,100.00
2023-02-24T05:58:23.774Z,100.00
2023-02-24T06:01:24.298Z,100.00
2023-02-24T06:04:21.101Z,100.00
2023-02-24T06:07:12.341Z,100.00
2023-02-24T06:09:56.731Z,100.00
2023-02-24T06:12:41.773Z,100.00
2023-02-24T06:15:22.219Z,100.00
2023-02-24T06:18:09.909Z,100.00
2023-02-24T06:20:51.312Z,100.00
2023-02-24T06:23:36.575Z,100.00
2023-02-24T06:26:19.773Z,100.00
2023-02-24T06:29:08.099Z,100.00
2023-02-24T06:31:59.973Z,100.00
2023-02-24T06:34:41.966Z,100.00
2023-02-24T06:37:31.821Z,100.00
2023-02-24T06:40:21.623Z,100.00
2023-02-24T06:43:07.786Z,100.00
2023-02-24T06:45:56.728Z,100.00
2023-02-24T06:48:40.100Z,100.00
2023-02-24T06:51:26.000Z,100.00
2023-02-24T06:54:19.342Z,100.00
2023-02-24T06:57:06.667Z,100.00
2023-02-24T06:59:56.136Z,100.00
2023-02-24T07:02:40.230Z,100.00
2023-02-24T07:05:19.912Z,100.00
2023-02-24T07:08:04.194Z,100.00
2023-02-24T07:10:56.798Z,100.00
2023-02-24T07:13:31.931Z,100.00
2023-02-24T07:16:29.012Z,100.00
2023-02-24T07:19:13.667Z,100.00
2023-02-24T07:22:00.786Z,100.00
2023-02-24T07:24:46.781Z,100.00
2023-02-24T07:27:33.799Z,100.00
2023-02-24T07:30:13.755Z,100.00
2023-02-24T07:33:04.823Z,100.00
2023-02-24T07:36:00.817Z,100.00
2023-02-24T07:38:41.790Z,100.00
2023-02-24T07:41:37.132Z,99.81
2023-02-24T07:44:19.842Z,99.53
2023-02-24T07:47:02.113Z,97.93
2023-02-24T07:49:45.932Z,97.59
2023-02-24T07:52:32.594Z,97.20
2023-02-24T07:55:25.854Z,96.16
2023-02-24T07:58:06.609Z,95.38
2023-02-24T08:01:14.361Z,95.84
2023-02-24T08:03:52.687Z,93.71
2023-02-24T08:07:03.821Z,94.24
2023-02-24T08:10:07.342Z,94.04
2023-02-24T08:13:03.130Z,94.80
2023-02-24T08:15:51.959Z,95.10
2023-02-24T08:18:37.605Z,93.83
2023-02-24T08:21:28.830Z,93.22
2023-02-24T08:24:25.141Z,92.36
2023-02-24T08:27:17.531Z,92.62
2023-02-24T08:30:04.533Z,92.27
2023-02-24T08:32:54.175Z,90.56
2023-02-24T08:35:44.743Z,91.36
2023-02-24T08:38:40.827Z,91.80
2023-02-24T08:41:56.736Z,89.41
2023-02-24T08:44:37.410Z,89.88
2023-02-24T08:47:31.148Z,90.27
2023-02-24T08:50:14.927Z,88.41
2023-02-24T08:52:58.586Z,86.75
2023-02-24T08:55:41.110Z,87.26
2023-02-24T08:58:27.219Z,85.81
2023-02-24T09:01:19.465Z,85.21
2023-02-24T09:04:07.381Z,85.00
2023-02-24T09:06:51.290Z,83.31
2023-02-24T09:09:42.366Z,84.27
2023-02-24T09:12:26.863Z,84.40
2023-02-24T09:15:15.989Z,84.83
2023-02-24T09:18:07.523Z,83.96
2023-02-24T09:21:20.846Z,83.10
2023-02-24T09:24:10.176Z,82.77
2023-02-24T09:27:14.682Z,80.96
2023-02-24T09:30:08.319Z,81.41
2023-02-24T09:32:48.312Z,80.58
2023-02-24T09:35:39.853Z,80.37
2023-02-24T09:38:47.563Z,80.82
2023-02-24T09:41:34.698Z,79.10
2023-02-24T09:44:26.677Z,79.60
2023-02-24T09:47:40.243Z,78.90
2023-02-24T09:51:02.558Z,78.26
2023-02-24T09:53:52.800Z,76.75
2023-02-24T09:56:44.158Z,78.11
2023-02-24T10:00:24.861Z,76.55
2023-02-24T10:03:21.839Z,74.70
2023-02-24T10:06:35.419Z,75.22
2023-02-24T10:09:45.505Z,73.61
2023-02-24T10:12:29.970Z,73.80
2023-02-24T10:15:42.165Z,73.76
2023-02-24T10:18:45.580Z,71.81
2023-02-24T10:22:00.280Z,70.75
2023-02-24T10:25:11.873Z,72.91
2023-02-24T10:28:11.250Z,71.06
2023-02-24T10:31:25.066Z,70.70
2023-02-24T10:34:31.815Z,70.76
2023-02-24T10:37:29.415Z,70.47
2023-02-24T10:40:12.076Z,67.43
2023-02-24T10:43:21.294Z,68.20
2023-02-24T10:46:17.415Z,68.60
2023-02-24T10:49:11.888Z,68.43
2023-02-24T10:51:55.297Z,68.90
2023-02-24T10:55:02.785Z,69.42
2023-02-24T10:57:59.178Z,67.92
2023-02-24T11:01:03.339Z,69.32
2023-02-24T11:04:02.135Z,67.35
2023-02-24T11:06:53.807Z,68.91
2023-02-24T11:09:32.437Z,68.32
2023-02-24T11:12:42.658Z,68.45
2023-02-24T11:16:02.563Z,68.24
2023-02-24T11:18:41.734Z,67.57
2023-02-24T11:21:28.406Z,67.23
2023-02-24T11:24:18.659Z,67.39
2023-02-24T11:27:06.417Z,67.90
2023-02-24T11:30:32.999Z,68.19
2023-02-24T11:34:00.564Z,68.74
2023-02-24T11:37:06.691Z,69.18
2023-02-24T11:40:09.829Z,67.90
2023-02-24T11:42:56.191Z,67.96
2023-02-24T11:45:51.682Z,66.91
2023-02-24T11:48:52.276Z,66.73
2023-02-24T11:51:31.504Z,67.20
2023-02-24T11:54:26.449Z,67.62
2023-02-24T11:57:20.948Z,65.59
2023-02-24T12:00:16.367Z,65.79
2023-02-24T12:03:06.302Z,64.68
2023-02-24T12:06:06.024Z,64.57
2023-02-24T12:08:52.902Z,64.71
2023-02-24T12:11:47.694Z,64.43
2023-02-24T12:14:51.676Z,63.80
2023-02-24T12:17:40.035Z,63.97
2023-02-24T12:20:30.652Z,63.80
2023-02-24T12:23:37.653Z,63.21
2023-02-24T12:26:18.800Z,61.78
2023-02-24T12:29:16.338Z,62.15
2023-02-24T12:32:10.812Z,61.90
2023-02-24T12:35:39.560Z,62.60
2023-02-24T12:38:31.377Z,63.10
2023-02-24T12:41:22.015Z,63.88
2023-02-24T12:44:10.873Z,64.40
2023-02-24T12:47:27.010Z,63.56
2023-02-24T12:50:24.197Z,64.39
2023-02-24T12:53:25.921Z,64.81
2023-02-24T12:57:14.038Z,64.57
2023-02-24T12:59:54.925Z,64.13
2023-02-24T13:03:18.539Z,63.88
2023-02-24T13:06:43.256Z,64.62
2023-02-24T13:09:44.527Z,64.51
2023-02-24T13:12:34.998Z,63.64
2023-02-24T13:15:37.772Z,63.51
2023-02-24T13:18:33.683Z,63.66
2023-02-24T13:21:23.448Z,63.23
2023-02-24T13:24:31.412Z,62.78
2023-02-24T13:27:39.025Z,63.43
2023-02-24T13:30:42.834Z,63.09
2023-02-24T13:33:44.509Z,63.22
2023-02-24T13:36:26.837Z,63.30
2023-02-24T13:39:34.838Z,64.06
2023-02-24T13:42:33.579Z,64.52
2023-02-24T13:45:30.861Z,65.63
2023-02-24T13:48:40.805Z,65.49
2023-02-24T13:51:25.001Z,65.75
2023-02-24T13:54:24.944Z,65.52
2023-02-24T13:57:14.623Z,66.94
2023-02-24T14:00:35.828Z,66.60
2023-02-24T14:03:28.337Z,65.05
2023-02-24T14:06:09.632Z,64.83
2023-02-24T14:09:00.822Z,64.09
2023-02-24T14:11:51.552Z,64.15
2023-02-24T14:14:41.454Z,63.31
2023-02-24T14:18:03.936Z,64.68
2023-02-24T14:20:49.976Z,66.46
2023-02-24T14:23:36.176Z,65.65
2023-02-24T14:26:28.880Z,66.64
2023-02-24T14:29:11.445Z,66.27
2023-02-24T14:31:54.198Z,66.88
2023-02-24T14:34:58.942Z,67.68
2023-02-24T14:37:44.240Z,68.48
2023-02-24T14:40:30.342Z,69.79
2023-02-24T14:43:15.058Z,68.45
2023-02-24T14:45:57.749Z,68.79
2023-02-24T14:48:36.624Z,68.73
2023-02-24T14:51:31.486Z,68.95
2023-02-24T14:54:23.375Z,69.89
2023-02-24T14:57:07.766Z,70.49
2023-02-24T15:00:29.890Z,71.28
2023-02-24T15:03:16.950Z,71.16
2023-02-24T15:06:00.449Z,72.38
2023-02-24T15:08:52.796Z,72.34
2023-02-24T15:11:41.124Z,71.71
2023-02-24T15:14:44.884Z,72.39
2023-02-24T15:17:29.529Z,71.43
2023-02-24T15:20:26.764Z,70.81
2023-02-24T15:23:13.382Z,71.39
2023-02-24T15:25:59.314Z,72.77
2023-02-24T15:28:45.812Z,72.06
2023-02-24T15:31:35.955Z,73.18
2023-02-24T15:34:27.283Z,73.25
2023-02-24T15:37:22.862Z,73.34
2023-02-24T15:40:22.366Z,73.60
2023-02-24T15:43:36.240Z,74.14
2023-02-24T15:46:49.853Z,73.65
2023-02-24T15:49:33.242Z,74.05
2023-02-24T15:52:11.549Z,74.75
2023-02-24T15:55:02.959Z,74.71
2023-02-24T15:57:35.686Z,75.15
2023-02-24T16:00:25.524Z,75.46
2023-02-24T16:03:16.747Z,75.61
2023-02-24T16:05:55.328Z,76.66
2023-02-24T16:08:44.758Z,77.01
2023-02-24T16:11:34.854Z,77.21
2023-02-24T16:14:24.044Z,77.72
2023-02-24T16:16:59.538Z,77.90
2023-02-24T16:19:47.390Z,78.03
2023-02-24T16:22:26.000Z,78.41
2023-02-24T16:25:10.340Z,78.81
2023-02-24T16:27:48.803Z,79.54
2023-02-24T16:30:30.432Z,78.47
2023-02-24T16:33:19.757Z,78.57
2023-02-24T16:36:08.810Z,79.08
2023-02-24T16:38:57.323Z,79.80
2023-02-24T16:41:40.831Z,79.16
2023-02-24T16:44:31.475Z,78.61
2023-02-24T16:47:21.510Z,78.39
2023-02-24T16:50:06.837Z,78.89
2023-02-24T16:52:58.069Z,79.30
2023-02-24T16:55:49.736Z,79.62
2023-02-24T16:58:34.463Z,80.26
2023-02-24T17:01:17.962Z,80.73
2023-02-24T17:03:55.652Z,80.96
2023-02-24T17:06:35.740Z,82.01
2023-02-24T17:09:36.301Z,81.49
2023-02-24T17:12:22.804Z,82.85
2023-02-24T17:15:10.112Z,83.06
2023-02-24T17:17:59.164Z,83.64
2023-02-24T17:20:43.338Z,84.12
2023-02-24T17:23:24.850Z,84.56
2023-02-24T17:26:08.306Z,85.03
2023-02-24T17:28:50.858Z,85.55
2023-02-24T17:31:33.448Z,85.33
2023-02-24T17:34:17.951Z,85.71
2023-02-24T17:37:02.929Z,86.70
2023-02-24T17:39:41.060Z,87.07
2023-02-24T17:42:17.659Z,87.93
2023-02-24T17:44:58.337Z,87.89
2023-02-24T17:47:46.497Z,87.86
2023-02-24T17:50:44.735Z,87.86
2023-02-24T17:53:27.803Z,88.02
2023-02-24T17:56:20.100Z,87.66
2023-02-24T17:59:01.683Z,86.60
2023-02-24T18:01:42.753Z,86.06
2023-02-24T18:04:37.190Z,85.29
2023-02-24T18:07:20.739Z,84.95
2023-02-24T18:10:01.030Z,84.58
2023-02-24T18:12:41.526Z,83.56
2023-02-24T18:15:34.832Z,82.33
2023-02-24T18:18:30.387Z,81.84
2023-02-24T18:21:02.422Z,80.90
2023-02-24T18:23:57.995Z,80.76
2023-02-24T18:26:46.504Z,79.86
2023-02-24T18:29:45.765Z,79.79
2023-02-24T18:32:26.979Z,80.05
2023-02-24T18:35:03.086Z,80.50
2023-02-24T18:37:58.373Z,80.81
2023-02-24T18:40:33.587Z,80.66
2023-02-24T18:43:20.255Z,80.95
2023-02-24T18:46:04.283Z,80.32
2023-02-24T18:48:46.077Z,80.17
2023-02-24T18:51:29.420Z,80.72
2023-02-24T18:54:16.748Z,80.86
2023-02-24T18:57:03.045Z,80.83
2023-02-24T19:00:11.592Z,80.74
2023-02-24T19:02:56.057Z,80.17
2023-02-24T19:06:01.387Z,80.29
2023-02-24T19:08:45.109Z,80.47
2023-02-24T19:11:29.865Z,80.91
2023-02-24T19:14:04.360Z,81.26
2023-02-24T19:16:51.985Z,81.26
2023-02-24T19:19:32.375Z,81.38
2023-02-24T19:22:16.109Z,81.98
2023-02-24T19:25:04.684Z,82.26
2023-02-24T19:27:59.252Z,82.90
2023-02-24T19:30:48.933Z,82.77
2023-02-24T19:33:35.259Z,82.71
2023-02-24T19:36:13.791Z,83.08
2023-02-24T19:38:55.543Z,83.10
2023-02-24T19:41:37.970Z,83.91
2023-02-24T19:44:21.064Z,83.59
2023-02-24T19:47:01.787Z,84.08
2023-02-24T19:49:42.509Z,84.29
2023-02-24T19:52:25.087Z,84.45
2023-02-24T19:55:11.959Z,84.89
2023-02-24T19:57:58.607Z,85.95
2023-02-24T20:00:40.818Z,86.02
2023-02-24T20:03:29.818Z,86.45
2023-02-24T20:06:29.232Z,85.94
2023-02-24T20:09:16.643Z,86.70
2023-02-24T20:11:59.109Z,87.55
2023-02-24T20:14:43.031Z,88.43
2023-02-24T20:17:12.632Z,88.85
2023-02-24T20:19:55.724Z,88.92
2023-02-24T20:22:42.723Z,89.13
2023-02-24T20:25:33.944Z,90.64
2023-02-24T20:28:13.243Z,91.49
2023-02-24T20:30:57.173Z,91.20
2023-02-24T20:33:41.752Z,91.06
2023-02-24T20:36:23.271Z,91.67
2023-02-24T20:39:09.638Z,91.67
2023-02-24T20:41:53.642Z,92.22
2023-02-24T20:44:34.532Z,92.77
2023-02-24T20:47:24.185Z,93.55
2023-02-24T20:50:17.194Z,93.01
2023-02-24T20:53:07.673Z,93.87
2023-02-24T20:55:54.189Z,94.02
2023-02-24T20:58:38.221Z,94.35
2023-02-24T21:01:39.278Z,94.16
2023-02-24T21:04:28.405Z,94.60
2023-02-24T21:07:20.166Z,96.50
2023-02-24T21:10:04.009Z,96.38
2023-02-24T21:12:58.813Z,96.40
2023-02-24T21:15:37.043Z,97.20
2023-02-24T21:18:21.687Z,97.62
2023-02-24T21:21:11.763Z,97.74
2023-02-24T21:23:50.437Z,98.01
2023-02-24T21:26:32.026Z,98.48
2023-02-24T21:29:18.729Z,98.73
2023-02-24T21:32:01.722Z,99.63
2023-02-24T21:34:53.801Z,99.78
2023-02-24T21:37:37.720Z,99.81
2023-02-24T21:40:18.814Z,100.00
2023-02-24T21:43:01.657Z,100.00
2023-02-24T21:45:53.673Z,100.00
2023-02-24T21:48:34.837Z,100.00
2023-02-24T21:51:15.825Z,100.00
2023-02-24T21:54:02.674Z,100.00
2023-02-24T21:56:47.757Z,100.00
2023-02-24T21:59:33.762Z,100.00
2023-02-24T22:02:18.145Z,100.00
2023-02-24T22:05:07.579Z,100.00
2023-02-24T22:07:49.375Z,100.00
2023-02-24T22:10:40.874Z,100.00
2023-02-24T22:13:29.854Z,100.00
2023-02-24T22:16:15.218Z,100.00
2023-02-24T22:19:04.958Z,100.00
2023-02-24T22:21:46.585Z,100.00
2023-02-24T22:24:36.255Z,100.00
2023-02-24T22:27:25.595Z,100.00
2023-02-24T22:30:10.874Z,100.00
2023-02-24T22:33:04.442Z,100.00
2023-02-24T22:35:47.252Z,100.00
2023-02-24T22:38:34.365Z,100.00
2023-02-24T22:41:12.795Z,100.00
2023-02-24T22:43:59.356Z,100.00
2023-02-24T22:46:46.180Z,100.00
2023-02-24T22:49:34.804Z,100.00
2023-02-24T22:52:20.057Z,100.00
2023-02-24T22:55:09.797Z,100.00
2023-02-24T22:57:52.777Z,100.00
2023-02-24T23:00:40.002Z,100.00
2023-02-24T23:03:32.828Z,100.00
2023-02-24T23:06:22.002Z,100.00
2023-02-24T23:09:08.731Z,100.00
2023-02-24T23:11:47.886Z,100.00
2023-02-24T23:14:34.960Z,100.00
2023-02-24T23:17:33.776Z,100.00
2023-02-24T23:20:17.849Z,100.00
2023-02-24T23:23:05.539Z,100.00
2023-02-24T23:25:50.970Z,100.00
2023-02-24T23:28:32.898Z,100.00
2023-02-24T23:31:23.861Z,100.00
2023-02-24T23:34:19.204Z,100.00
2023-02-24T23:37:01.802Z,100.00
2023-02-24T23:39:53.557Z,100.00
2023-02-24T23:42:36.901Z,100.00
2023-02-24T23:45:32.384Z,100.00
2023-02-24T23:48:21.629Z,100.00
2023-02-24T23:51:11.888Z,100.00
2023-02-24T23:53:58.071Z,100.00
2023-02-24T23:57:04.472Z,100.00
2023-02-24T23:59:52.818Z,100.00
